Time;durP1;ratioP1;P1;durP2;ratioP2;P2;SDS_P1;SDS_P2;PMS_P1;PMS_P2;Temp;Humidity;BMP_temperature;BMP_pressure;BME280_temperature;BME280_humidity;BME280_pressure;Samples;Min_cycle;Max_cycle;Signal;HPM_P1;HPM_P2
2023/09/01 00:00:17;;;;;;;2.70;2.10;;;29.20;49.40;;;;;;5051516;28;20445;-67
2023/09/01 00:02:53;;;;;;;5.13;2.70;;;29.30;49.40;;;;;;5068383;28;20759;-67
2023/09/01 00:05:19;;;;;;;3.85;3.00;;;29.30;49.50;;;;;;5068704;28;20044;-67
2023/09/01 00:07:45;;;;;;;2.42;2.15;;;29.40;49.50;;;;;;5068557;28;20045;-67
2023/09/01 00:10:11;;;;;;;2.45;2.25;;;29.40;49.60;;;;;;5068709;28;20059;-67
2023/09/01 00:12:37;;;;;;;2.55;2.35;;;29.40;49.60;;;;;;5068538;28;20048;-67
2023/09/01 00:15:04;;;;;;;4.75;2.95;;;29.40;49.70;;;;;;5068246;28;20045;-67
2023/09/01 00:17:30;;;;;;;3.45;2.30;;;29.40;49.70;;;;;;5068736;28;20115;-67
2023/09/01 00:19:56;;;;;;;2.65;2.22;;;29.40;49.70;;;;;;5068562;28;20119;-67
2023/09/01 00:22:22;;;;;;;2.45;1.98;;;29.30;49.70;;;;;;5068759;28;20459;-67
2023/09/01 00:24:48;;;;;;;2.65;2.20;;;29.50;49.80;;;;;;5068431;28;20041;-67
2023/09/01 00:27:14;;;;;;;2.85;2.30;;;29.30;49.80;;;;;;5068337;28;20087;-67
2023/09/01 00:29:40;;;;;;;2.85;2.38;;;29.40;49.90;;;;;;5067809;28;20056;-67
2023/09/01 00:32:06;;;;;;;2.60;1.95;;;29.50;49.90;;;;;;5068807;28;20481;-67
2023/09/01 00:34:33;;;;;;;2.58;2.38;;;29.40;50.00;;;;;;5039499;28;20183;-67
2023/09/01 00:36:59;;;;;;;3.58;2.33;;;29.50;50.00;;;;;;5013641;28;20041;-67
2023/09/01 00:39:25;;;;;;;2.55;2.00;;;29.50;50.00;;;;;;5046540;28;20045;-67
2023/09/01 00:41:51;;;;;;;3.83;2.50;;;29.40;50.00;;;;;;5046068;28;20482;-67
2023/09/01 00:44:17;;;;;;;3.00;2.15;;;29.50;50.00;;;;;;5042008;28;20061;-67
2023/09/01 00:46:46;;;;;;;3.33;2.10;;;29.40;50.00;;;;;;5070496;28;20512;-67
2023/09/01 00:49:13;;;;;;;2.55;2.28;;;29.60;50.10;;;;;;5051425;28;20456;-67
2023/09/01 00:51:39;;;;;;;2.22;2.03;;;29.40;50.10;;;;;;5051700;28;20033;-67
2023/09/01 00:54:05;;;;;;;2.88;2.22;;;29.30;50.00;;;;;;5068607;28;20130;-67
2023/09/01 00:56:32;;;;;;;3.95;2.40;;;29.40;50.10;;;;;;5068183;28;20396;-67
2023/09/01 00:58:58;;;;;;;2.83;2.38;;;29.40;50.20;;;;;;5051642;28;20040;-66
2023/09/01 01:01:24;;;;;;;3.28;2.35;;;29.40;50.20;;;;;;5068349;28;20393;-66
2023/09/01 01:03:52;;;;;;;2.80;2.50;;;29.40;50.30;;;;;;5051582;28;20045;-67
2023/09/01 01:06:35;;;;;;;2.78;2.55;;;29.40;50.30;;;;;;5028274;28;20053;-67
2023/09/01 01:09:13;;;;;;;4.43;2.72;;;29.30;50.40;;;;;;5028289;28;20038;-67
2023/09/01 01:12:09;;;;;;;3.72;2.78;;;29.50;50.40;;;;;;5012102;28;20053;-67
2023/09/01 01:14:56;;;;;;;2.50;2.17;;;29.40;50.40;;;;;;5028317;28;20120;-67
2023/09/01 01:17:23;;;;;;;2.50;2.30;;;29.30;50.40;;;;;;5011553;28;20049;-67
2023/09/01 01:19:55;;;;;;;1.95;1.73;;;29.50;50.40;;;;;;5018774;28;20499;-67
2023/09/01 01:22:38;;;;;;;2.53;2.20;;;29.40;50.50;;;;;;5047984;28;20110;-67
2023/09/01 01:25:10;;;;;;;2.60;2.20;;;29.30;50.50;;;;;;5031365;28;20045;-67
2023/09/01 01:27:42;;;;;;;2.50;2.30;;;29.30;50.50;;;;;;5049789;28;20040;-67
2023/09/01 01:30:09;;;;;;;3.45;2.13;;;29.50;50.50;;;;;;5051847;28;20562;-67
2023/09/01 01:32:36;;;;;;;2.75;2.25;;;29.40;50.50;;;;;;5012121;28;20065;-67
2023/09/01 01:35:41;;;;;;;3.13;2.50;;;29.40;50.50;;;;;;4995790;28;20218;-67
2023/09/01 01:38:24;;;;;;;2.08;1.88;;;29.40;50.50;;;;;;4995571;28;20050;-65
2023/09/01 01:40:55;;;;;;;2.63;2.28;;;29.50;50.50;;;;;;5012235;28;20033;-67
2023/09/01 01:43:24;;;;;;;4.32;2.40;;;29.40;50.60;;;;;;5025048;28;20053;-67
2023/09/01 01:45:51;;;;;;;2.15;1.90;;;29.50;50.60;;;;;;5051662;28;20044;-67
2023/09/01 01:48:17;;;;;;;2.35;2.15;;;29.50;50.60;;;;;;5034639;28;20061;-67
2023/09/01 01:50:43;;;;;;;2.60;2.00;;;29.40;50.60;;;;;;5049472;28;20234;-67
2023/09/01 01:53:13;;;;;;;2.47;2.28;;;29.50;50.60;;;;;;5011307;28;20054;-67
2023/09/01 01:55:39;;;;;;;3.58;1.90;;;29.40;50.60;;;;;;4995294;28;20050;-67
2023/09/01 01:58:05;;;;;;;3.30;2.60;;;29.40;50.60;;;;;;4995038;28;20084;-67
2023/09/01 02:00:32;;;;;;;3.22;1.95;;;29.50;50.60;;;;;;4995257;28;20062;-67
2023/09/01 02:02:58;;;;;;;3.90;2.13;;;29.30;50.60;;;;;;4995037;28;20049;-67
2023/09/01 02:05:25;;;;;;;3.97;2.72;;;29.40;50.80;;;;;;5011495;28;20050;-67
2023/09/01 02:07:52;;;;;;;2.70;2.33;;;29.30;50.90;;;;;;4994897;28;20502;-67
2023/09/01 02:10:18;;;;;;;2.92;2.63;;;29.20;50.90;;;;;;5018845;28;20080;-67
2023/09/01 02:12:44;;;;;;;3.85;2.63;;;29.30;50.90;;;;;;5017668;28;20459;-67
2023/09/01 02:15:10;;;;;;;3.28;2.42;;;29.40;51.00;;;;;;5034611;28;20069;-67
2023/09/01 02:17:37;;;;;;;2.67;2.35;;;29.30;51.00;;;;;;5034011;28;20056;-66
2023/09/01 02:20:16;;;;;;;3.28;2.42;;;29.30;51.10;;;;;;5050713;28;20417;-67
2023/09/01 02:22:44;;;;;;;2.83;2.22;;;29.30;51.10;;;;;;5034344;28;20041;-67
2023/09/01 02:25:10;;;;;;;4.00;3.08;;;29.20;51.10;;;;;;5034303;28;20052;-67
2023/09/01 02:27:39;;;;;;;2.55;2.30;;;29.20;51.20;;;;;;5050519;28;20041;-67
2023/09/01 02:30:08;;;;;;;3.00;2.63;;;29.10;51.20;;;;;;5051605;28;20121;-67
2023/09/01 02:32:34;;;;;;;3.22;2.47;;;29.10;51.30;;;;;;5053105;28;20159;-67
2023/09/01 02:35:00;;;;;;;2.45;2.05;;;29.10;51.30;;;;;;5050943;28;20052;-67
2023/09/01 02:37:29;;;;;;;2.10;1.90;;;29.20;51.30;;;;;;5051561;28;20086;-67
2023/09/01 02:39:55;;;;;;;2.65;2.15;;;29.10;51.20;;;;;;5053412;28;20040;-67
2023/09/01 02:42:21;;;;;;;5.25;2.53;;;29.20;51.30;;;;;;5059493;28;20037;-67
2023/09/01 02:44:47;;;;;;;3.58;2.70;;;29.20;51.20;;;;;;5071846;28;20114;-67
2023/09/01 02:47:13;;;;;;;2.63;2.42;;;29.20;51.20;;;;;;5073044;28;20525;-67
2023/09/01 02:49:39;;;;;;;2.83;2.42;;;29.20;51.20;;;;;;5071643;28;20029;-67
2023/09/01 02:52:06;;;;;;;2.95;2.63;;;29.30;51.20;;;;;;5073010;28;20148;-67
2023/09/01 02:54:32;;;;;;;2.38;2.00;;;29.30;51.20;;;;;;5071504;28;20108;-67
2023/09/01 02:56:58;;;;;;;2.58;2.35;;;29.30;51.20;;;;;;5070491;28;20048;-67
2023/09/01 02:59:24;;;;;;;2.78;2.50;;;29.30;51.20;;;;;;5071377;28;20035;-67
2023/09/01 03:01:50;;;;;;;2.47;2.20;;;29.20;51.20;;;;;;5053692;28;20044;-67
2023/09/01 03:04:17;;;;;;;2.55;2.00;;;29.50;51.20;;;;;;5071676;28;20039;-67
2023/09/01 03:06:43;;;;;;;2.90;2.28;;;29.40;51.20;;;;;;5071339;28;20472;-67
2023/09/01 03:09:10;;;;;;;2.38;2.10;;;29.40;51.20;;;;;;5071129;28;20376;-67
2023/09/01 03:11:36;;;;;;;2.85;2.25;;;29.40;51.20;;;;;;5071355;28;20149;-67
2023/09/01 03:14:04;;;;;;;2.38;2.05;;;29.40;51.20;;;;;;5071084;28;20037;-67
2023/09/01 03:16:30;;;;;;;2.17;1.98;;;29.60;51.20;;;;;;5070087;28;20436;-67
2023/09/01 03:18:59;;;;;;;3.55;1.92;;;29.40;51.20;;;;;;5070942;28;20043;-67
2023/09/01 03:21:32;;;;;;;11.18;3.28;;;29.50;51.20;;;;;;5072075;28;20488;-67
2023/09/01 03:23:58;;;;;;;2.45;2.20;;;29.40;51.20;;;;;;5072276;28;20028;-67
2023/09/01 03:26:24;;;;;;;1.95;1.85;;;29.40;51.20;;;;;;5070957;28;20036;-68
2023/09/01 03:28:50;;;;;;;2.40;1.80;;;29.40;51.20;;;;;;5072297;28;20068;-67
2023/09/01 03:31:17;;;;;;;3.60;2.42;;;29.40;51.20;;;;;;5072063;28;20516;-67
2023/09/01 03:33:43;;;;;;;2.45;2.13;;;29.50;51.20;;;;;;5071698;28;20036;-67
2023/09/01 03:36:11;;;;;;;3.00;2.30;;;29.50;51.10;;;;;;5070650;28;20037;-67
2023/09/01 03:38:37;;;;;;;3.20;2.33;;;29.50;51.10;;;;;;5071741;28;20036;-67
2023/09/01 03:41:07;;;;;;;2.30;1.80;;;29.50;51.20;;;;;;5070424;28;20546;-67
2023/09/01 03:43:33;;;;;;;2.88;1.95;;;29.50;51.10;;;;;;5086298;28;20403;-67
2023/09/01 03:46:00;;;;;;;2.42;2.22;;;29.50;51.20;;;;;;5072078;28;20044;-67
2023/09/01 03:48:26;;;;;;;2.25;2.05;;;29.60;51.20;;;;;;5070226;28;20053;-67
2023/09/01 03:51:25;;;;;;;3.65;2.38;;;29.40;51.10;;;;;;5069838;28;20115;-66
2023/09/01 03:53:51;;;;;;;1.95;1.83;;;29.50;51.10;;;;;;5011129;28;20420;-67
2023/09/01 03:56:19;;;;;;;4.82;2.10;;;29.60;51.10;;;;;;5029404;28;20033;-68
2023/09/01 03:58:46;;;;;;;3.28;2.78;;;29.60;51.00;;;;;;5028976;28;20030;-69
2023/09/01 04:01:12;;;;;;;4.03;3.15;;;29.50;49.90;;;;;;5012907;28;20588;-69
2023/09/01 04:03:39;;;;;;;3.45;3.03;;;29.50;48.60;;;;;;4996264;28;20046;-69
2023/09/01 04:06:06;;;;;;;4.10;3.03;;;29.50;47.20;;;;;;5029126;28;20571;-69
2023/09/01 04:08:34;;;;;;;3.22;2.92;;;29.70;47.00;;;;;;5008907;28;20054;-69
2023/09/01 04:11:00;;;;;;;4.57;3.33;;;29.40;45.90;;;;;;5009207;28;20632;-69
2023/09/01 04:13:26;;;;;;;4.60;3.00;;;29.50;46.00;;;;;;5009235;28;20042;-69
2023/09/01 04:15:52;;;;;;;5.10;3.78;;;29.50;44.70;;;;;;4992639;28;20049;-70
2023/09/01 04:18:18;;;;;;;5.55;3.70;;;29.50;45.50;;;;;;4992765;28;20509;-68
2023/09/01 04:20:49;;;;;;;5.50;3.70;;;29.60;48.00;;;;;;4976353;28;20037;-69
2023/09/01 04:23:15;;;;;;;6.18;3.47;;;29.90;50.40;;;;;;4992610;28;20180;-67
2023/09/01 04:25:49;;;;;;;16.90;4.82;;;30.00;52.40;;;;;;4989248;28;20054;-69
2023/09/01 04:28:19;;;;;;;10.82;3.58;;;30.20;51.10;;;;;;4973809;28;20120;-69
2023/09/01 04:30:47;;;;;;;4.60;2.67;;;30.10;49.70;;;;;;5020690;28;20448;-68
2023/09/01 04:33:14;;;;;;;4.70;3.58;;;30.00;49.50;;;;;;5028723;28;20446;-68
2023/09/01 04:35:40;;;;;;;7.22;3.47;;;29.90;48.20;;;;;;5010859;28;20133;-67
2023/09/01 04:38:06;;;;;;;6.70;3.13;;;29.70;48.30;;;;;;5005252;28;20042;-66
2023/09/01 04:40:32;;;;;;;6.05;3.00;;;29.70;48.40;;;;;;5041815;28;20075;-67
2023/09/01 04:42:59;;;;;;;5.90;3.03;;;29.70;48.40;;;;;;5028589;28;20049;-67
2023/09/01 04:45:25;;;;;;;5.05;3.20;;;29.70;48.40;;;;;;5012281;28;20755;-67
2023/09/01 04:47:52;;;;;;;7.90;3.25;;;29.70;48.40;;;;;;5011744;28;20128;-67
2023/09/01 04:50:18;;;;;;;4.43;3.10;;;29.70;48.50;;;;;;5012128;28;20034;-67
2023/09/01 04:52:44;;;;;;;5.63;2.80;;;29.70;48.60;;;;;;5012012;28;20045;-67
2023/09/01 04:55:11;;;;;;;4.65;3.25;;;29.80;48.80;;;;;;5012221;28;20188;-67
2023/09/01 04:57:37;;;;;;;6.28;3.47;;;29.70;48.50;;;;;;5010105;28;20052;-67
2023/09/01 05:00:15;;;;;;;3.92;3.15;;;29.70;47.50;;;;;;5045061;28;20045;-66
2023/09/01 05:02:45;;;;;;;7.18;3.65;;;29.50;46.70;;;;;;5033085;28;20046;-67
2023/09/01 05:05:13;;;;;;;8.27;4.20;;;29.50;45.90;;;;;;5033651;28;20037;-67
2023/09/01 05:07:39;;;;;;;7.13;4.22;;;29.80;45.60;;;;;;5066829;28;20040;-67
2023/09/01 05:10:08;;;;;;;9.13;3.72;;;29.60;45.30;;;;;;5033609;28;20048;-68
2023/09/01 05:12:34;;;;;;;7.25;4.30;;;29.50;45.60;;;;;;5034733;28;20116;-67
2023/09/01 05:15:01;;;;;;;6.40;3.63;;;29.50;45.40;;;;;;5033696;28;20060;-68
2023/09/01 05:17:27;;;;;;;5.78;3.38;;;29.50;46.00;;;;;;5033801;28;20034;-68
2023/09/01 05:19:53;;;;;;;6.45;3.67;;;29.60;46.20;;;;;;5034460;28;20037;-67
2023/09/01 05:22:20;;;;;;;6.18;3.67;;;29.60;46.50;;;;;;5066740;28;20116;-67
2023/09/01 05:24:48;;;;;;;4.47;3.50;;;29.50;46.70;;;;;;5033170;28;20065;-67
2023/09/01 05:27:32;;;;;;;7.25;3.67;;;29.60;47.70;;;;;;5031867;28;20095;-68
2023/09/01 05:29:57;;;;;;;6.75;4.30;;;29.60;48.00;;;;;;5051538;28;20064;-67
2023/09/01 05:32:23;;;;;;;8.00;5.03;;;29.50;48.30;;;;;;5052105;28;20118;-68
2023/09/01 05:34:50;;;;;;;7.53;5.40;;;29.60;47.90;;;;;;5035269;28;20053;-67
2023/09/01 05:37:17;;;;;;;7.60;6.05;;;29.70;48.10;;;;;;5018870;28;20048;-67
2023/09/01 05:39:44;;;;;;;6.63;3.38;;;29.60;49.10;;;;;;5051767;28;20045;-67
2023/09/01 05:42:10;;;;;;;5.05;2.92;;;29.50;48.40;;;;;;5034756;28;20124;-66
2023/09/01 05:44:37;;;;;;;6.13;3.55;;;29.50;48.50;;;;;;5051183;28;20091;-67
2023/09/01 05:47:04;;;;;;;7.07;3.67;;;29.50;48.10;;;;;;5034739;28;20093;-67
2023/09/01 05:49:31;;;;;;;6.53;4.40;;;29.50;47.40;;;;;;5034179;28;20064;-69
2023/09/01 05:51:57;;;;;;;6.13;4.15;;;29.30;46.70;;;;;;5051172;28;20128;-68
2023/09/01 05:54:23;;;;;;;5.65;3.90;;;29.30;46.40;;;;;;5034565;28;20091;-69
2023/09/01 05:56:50;;;;;;;4.93;3.65;;;29.00;46.70;;;;;;5051028;28;20492;-67
2023/09/01 05:59:16;;;;;;;5.90;3.65;;;29.00;46.80;;;;;;5062147;28;20800;-69
2023/09/01 06:01:42;;;;;;;5.95;3.60;;;28.90;47.40;;;;;;5055245;28;20060;-66
2023/09/01 06:04:08;;;;;;;5.47;3.85;;;28.80;47.20;;;;;;5051182;28;20053;-67
2023/09/01 06:06:35;;;;;;;4.25;3.63;;;28.90;47.40;;;;;;5051110;28;20045;-69
2023/09/01 06:09:05;;;;;;;5.30;3.70;;;29.00;48.60;;;;;;5051040;28;20044;-69
2023/09/01 06:11:36;;;;;;;6.20;3.50;;;29.00;47.60;;;;;;5034403;28;20590;-68
2023/09/01 06:14:03;;;;;;;6.00;3.53;;;28.90;46.70;;;;;;5050568;28;20066;-68
2023/09/01 06:16:29;;;;;;;4.65;3.60;;;28.80;46.90;;;;;;5051259;28;20077;-68
2023/09/01 06:18:57;;;;;;;5.75;3.63;;;28.80;46.80;;;;;;5051016;28;20040;-70
2023/09/01 06:21:23;;;;;;;5.85;3.72;;;28.90;46.60;;;;;;5052907;28;20465;-68
2023/09/01 06:23:49;;;;;;;4.53;3.63;;;28.90;46.50;;;;;;5053157;28;20048;-69
2023/09/01 06:26:18;;;;;;;5.15;4.00;;;29.10;46.80;;;;;;5053649;28;20037;-68
2023/09/01 06:28:46;;;;;;;4.53;3.28;;;29.10;46.80;;;;;;5052738;28;20089;-68
2023/09/01 06:31:13;;;;;;;8.50;4.03;;;29.10;46.70;;;;;;5053494;28;20036;-68
2023/09/01 06:33:44;;;;;;;7.15;4.03;;;29.10;46.70;;;;;;5052868;28;20032;-68
2023/09/01 06:36:12;;;;;;;8.52;4.25;;;29.30;46.70;;;;;;5052012;28;20029;-67
2023/09/01 06:38:40;;;;;;;6.30;3.95;;;29.20;46.50;;;;;;5032496;28;20045;-69
2023/09/01 06:41:06;;;;;;;7.60;4.30;;;29.20;49.10;;;;;;5070813;28;20106;-68
2023/09/01 06:43:32;;;;;;;4.43;4.00;;;29.00;48.30;;;;;;5052924;28;20041;-69
2023/09/01 06:45:58;;;;;;;4.88;4.35;;;29.10;47.50;;;;;;5064657;28;20077;-68
2023/09/01 06:48:24;;;;;;;5.15;4.22;;;29.10;47.70;;;;;;5059461;28;20056;-68
2023/09/01 06:50:51;;;;;;;7.50;3.03;;;29.00;48.10;;;;;;5052824;28;20036;-70
2023/09/01 06:53:17;;;;;;;7.32;4.70;;;29.10;48.80;;;;;;5053279;28;20036;-69
2023/09/01 06:55:46;;;;;;;7.38;4.05;;;29.00;48.60;;;;;;5068593;28;20040;-69
2023/09/01 06:58:13;;;;;;;5.95;3.95;;;29.00;48.70;;;;;;5073040;28;20037;-68
2023/09/01 07:00:40;;;;;;;5.97;4.15;;;28.90;47.70;;;;;;5053569;28;20780;-68
2023/09/01 07:03:06;;;;;;;7.07;3.58;;;28.90;47.70;;;;;;5072360;28;20038;-68
2023/09/01 07:05:32;;;;;;;9.77;4.35;;;28.90;47.70;;;;;;5072651;28;20098;-68
2023/09/01 07:07:58;;;;;;;7.57;3.95;;;29.00;48.10;;;;;;5071351;28;20035;-67
2023/09/01 07:10:24;;;;;;;6.72;3.85;;;28.90;47.50;;;;;;5052383;28;20043;-68
2023/09/01 07:12:50;;;;;;;7.63;4.53;;;28.90;47.50;;;;;;5070035;28;20032;-68
2023/09/01 07:15:16;;;;;;;6.60;3.83;;;28.90;49.10;;;;;;5072418;28;20036;-66
2023/09/01 07:17:42;;;;;;;6.60;4.18;;;29.00;51.50;;;;;;5070871;28;20051;-68
2023/09/01 07:20:10;;;;;;;6.70;4.22;;;29.00;50.10;;;;;;5069463;28;20148;-69
2023/09/01 07:22:36;;;;;;;4.97;4.18;;;29.00;49.50;;;;;;5052937;28;20049;-68
2023/09/01 07:25:04;;;;;;;4.85;4.32;;;29.20;49.20;;;;;;5049038;28;20107;-69
2023/09/01 07:27:30;;;;;;;8.43;4.57;;;29.10;49.00;;;;;;5049742;28;20373;-69
2023/09/01 07:29:56;;;;;;;6.25;4.80;;;29.10;48.90;;;;;;5049773;28;20055;-69
2023/09/01 07:32:22;;;;;;;7.85;4.70;;;29.10;48.80;;;;;;5049293;28;20056;-69
2023/09/01 07:34:48;;;;;;;6.43;4.60;;;29.10;48.80;;;;;;5049803;28;20060;-69
2023/09/01 07:37:14;;;;;;;5.65;4.32;;;29.10;48.80;;;;;;5048915;28;20037;-68
2023/09/01 07:39:40;;;;;;;4.90;4.18;;;29.10;49.00;;;;;;5048681;28;20122;-68
2023/09/01 07:42:07;;;;;;;4.57;3.72;;;29.10;48.80;;;;;;5049111;28;20037;-68
2023/09/01 07:44:33;;;;;;;5.35;3.78;;;29.10;48.70;;;;;;5032823;28;20047;-68
2023/09/01 07:46:59;;;;;;;10.15;3.90;;;29.10;48.80;;;;;;5038234;28;20497;-68
2023/09/01 07:49:25;;;;;;;4.88;3.92;;;29.20;48.80;;;;;;5049155;28;20140;-68
2023/09/01 07:51:51;;;;;;;5.75;3.78;;;29.10;48.80;;;;;;5051147;28;20083;-68
2023/09/01 07:54:18;;;;;;;6.22;3.70;;;29.20;48.70;;;;;;5051070;28;20485;-68
2023/09/01 07:56:43;;;;;;;4.95;3.85;;;29.20;48.70;;;;;;5051301;28;20057;-68
2023/09/01 07:59:09;;;;;;;5.35;4.20;;;29.20;48.60;;;;;;5051382;28;20021;-68
2023/09/01 08:01:35;;;;;;;6.50;3.92;;;29.20;48.70;;;;;;5051558;28;20044;-68
2023/09/01 08:04:02;;;;;;;5.07;3.67;;;29.20;48.80;;;;;;5051415;28;20037;-68
2023/09/01 08:06:31;;;;;;;5.35;3.70;;;29.20;48.60;;;;;;5050136;28;20045;-68
2023/09/01 08:08:57;;;;;;;6.45;3.90;;;29.10;48.60;;;;;;5048947;28;20106;-68
2023/09/01 08:11:23;;;;;;;9.18;3.88;;;29.20;48.50;;;;;;5050944;28;20037;-68
2023/09/01 08:13:50;;;;;;;4.85;3.40;;;29.20;48.50;;;;;;5050296;28;20041;-68
2023/09/01 08:16:17;;;;;;;4.43;3.70;;;29.30;48.40;;;;;;5051164;28;20036;-68
2023/09/01 08:18:43;;;;;;;3.92;3.53;;;29.20;48.40;;;;;;5050698;28;20036;-68
2023/09/01 08:21:10;;;;;;;6.80;3.58;;;29.20;48.40;;;;;;5050904;28;20082;-68
2023/09/01 08:23:36;;;;;;;4.05;3.63;;;29.20;48.30;;;;;;5051200;28;20166;-69
2023/09/01 08:26:05;;;;;;;3.70;3.40;;;29.20;48.30;;;;;;5050862;28;20120;-68
2023/09/01 08:28:31;;;;;;;4.05;3.70;;;29.30;48.20;;;;;;5050852;28;20180;-68
2023/09/01 08:31:04;;;;;;;4.97;3.80;;;29.30;48.20;;;;;;5050827;28;20480;-68
2023/09/01 08:33:31;;;;;;;6.75;3.80;;;29.50;48.40;;;;;;5051144;28;20029;-69
2023/09/01 08:36:00;;;;;;;5.38;3.03;;;29.30;48.40;;;;;;5051185;28;20048;-68
2023/09/01 08:38:26;;;;;;;5.28;3.17;;;29.30;48.60;;;;;;5051063;28;20040;-68
2023/09/01 08:41:05;;;;;;;6.03;3.55;;;29.40;48.70;;;;;;5050841;28;20047;-67
2023/09/01 08:43:36;;;;;;;5.57;3.40;;;29.40;48.80;;;;;;5059041;28;20387;-68
2023/09/01 08:46:03;;;;;;;4.53;4.10;;;29.40;48.70;;;;;;5071138;28;20051;-67
2023/09/01 08:48:31;;;;;;;4.60;3.97;;;29.30;48.60;;;;;;5070774;28;20052;-67
2023/09/01 08:50:58;;;;;;;3.97;3.28;;;29.30;48.50;;;;;;5070888;28;20162;-68
2023/09/01 08:53:25;;;;;;;5.15;3.60;;;29.30;48.40;;;;;;5070836;28;20089;-68
2023/09/01 08:55:54;;;;;;;3.17;2.83;;;29.40;48.40;;;;;;5070937;28;20089;-67
2023/09/01 08:58:21;;;;;;;3.72;2.70;;;29.30;48.30;;;;;;5071067;28;20032;-67
2023/09/01 09:00:48;;;;;;;5.00;2.90;;;29.30;48.30;;;;;;5070703;28;20029;-68
2023/09/01 09:03:16;;;;;;;4.13;3.42;;;29.30;48.40;;;;;;5070759;28;20141;-68
2023/09/01 09:05:44;;;;;;;4.10;3.30;;;29.10;48.50;;;;;;5068796;28;20498;-67
2023/09/01 09:08:11;;;;;;;5.05;3.47;;;29.20;48.50;;;;;;5058472;28;20033;-68
2023/09/01 09:10:38;;;;;;;4.57;3.05;;;29.20;48.70;;;;;;5050606;28;20067;-68
2023/09/01 09:13:20;;;;;;;4.63;2.97;;;29.10;48.80;;;;;;5050787;28;20092;-68
2023/09/01 09:16:05;;;;;;;3.40;2.90;;;29.10;48.90;;;;;;5049643;28;20139;-68
2023/09/01 09:18:31;;;;;;;3.42;3.00;;;29.10;49.00;;;;;;5050418;28;20404;-68
2023/09/01 09:20:57;;;;;;;4.03;3.08;;;29.10;49.00;;;;;;5050737;28;20040;-68
2023/09/01 09:23:50;;;;;;;3.92;2.95;;;29.10;49.10;;;;;;5049428;28;20128;-68
2023/09/01 09:26:16;;;;;;;3.45;2.92;;;29.20;49.10;;;;;;5008594;28;20049;-69
2023/09/01 09:28:44;;;;;;;3.90;3.03;;;29.20;49.10;;;;;;5008570;28;20057;-68
2023/09/01 09:31:10;;;;;;;3.28;2.55;;;29.10;49.10;;;;;;5008453;28;20068;-68
2023/09/01 09:33:38;;;;;;;3.20;2.90;;;29.20;49.10;;;;;;5008393;28;20494;-68
2023/09/01 09:36:04;;;;;;;3.53;2.97;;;29.20;49.10;;;;;;5008448;28;20073;-68
2023/09/01 09:38:40;;;;;;;2.70;2.20;;;29.30;49.10;;;;;;5008527;28;20516;-68
2023/09/01 09:41:06;;;;;;;4.03;2.85;;;29.20;49.10;;;;;;5008273;28;20042;-68
2023/09/01 09:43:46;;;;;;;2.95;2.60;;;29.20;49.20;;;;;;4991939;28;20498;-68
2023/09/01 09:46:13;;;;;;;3.38;2.85;;;29.20;49.20;;;;;;5008275;28;20045;-68
2023/09/01 09:48:40;;;;;;;5.00;3.40;;;29.30;49.20;;;;;;5009709;28;20058;-68
2023/09/01 09:51:10;;;;;;;2.97;2.67;;;29.20;49.30;;;;;;5011847;28;20102;-69
2023/09/01 09:53:38;;;;;;;3.72;2.88;;;29.10;49.30;;;;;;5012008;28;20560;-68
2023/09/01 09:56:13;;;;;;;4.40;2.55;;;29.30;49.30;;;;;;5011840;28;20111;-69
2023/09/01 09:58:42;;;;;;;2.70;2.50;;;29.20;49.40;;;;;;5011867;28;20045;-68
2023/09/01 10:01:17;;;;;;;2.67;2.17;;;29.30;49.40;;;;;;5011623;28;20470;-68
2023/09/01 10:03:44;;;;;;;3.08;2.40;;;29.30;49.40;;;;;;5044564;28;20056;-68
2023/09/01 10:06:11;;;;;;;3.25;2.92;;;29.20;49.30;;;;;;5053624;28;20445;-68
2023/09/01 10:08:38;;;;;;;3.35;2.38;;;29.30;49.30;;;;;;5053491;28;20045;-68
2023/09/01 10:11:06;;;;;;;3.00;2.55;;;29.20;49.40;;;;;;5052878;28;20270;-68
2023/09/01 10:13:32;;;;;;;2.97;2.67;;;29.20;49.50;;;;;;5053413;28;20040;-68
2023/09/01 10:16:00;;;;;;;4.03;3.03;;;29.10;49.50;;;;;;5053346;28;20175;-68
2023/09/01 10:18:27;;;;;;;4.95;2.88;;;29.20;49.60;;;;;;5053419;28;20068;-69
2023/09/01 10:20:53;;;;;;;2.65;2.30;;;29.20;49.60;;;;;;5053191;28;20187;-68
2023/09/01 10:23:19;;;;;;;2.80;2.30;;;29.00;49.70;;;;;;5053376;28;20041;-68
2023/09/01 10:26:28;;;;;;;3.03;2.70;;;29.00;50.30;;;;;;5053007;28;20534;-69
2023/09/01 10:29:01;;;;;;;9.73;3.08;;;29.40;53.80;;;;;;5053188;28;20029;-69
2023/09/01 10:31:28;;;;;;;6.13;3.47;;;29.90;60.40;;;;;;5051607;28;20036;-69
2023/09/01 10:34:09;;;;;;;4.20;3.42;;;30.20;61.30;;;;;;5053168;28;20072;-68
2023/09/01 10:36:37;;;;;;;4.03;3.63;;;30.10;59.80;;;;;;5053257;28;20029;-68
2023/09/01 10:39:24;;;;;;;9.05;4.72;;;30.00;54.70;;;;;;5034128;28;20453;-69
2023/09/01 10:42:08;;;;;;;4.63;3.08;;;29.80;51.50;;;;;;5064234;28;20036;-68
2023/09/01 10:44:40;;;;;;;9.20;3.90;;;29.80;50.90;;;;;;5072944;28;20048;-68
2023/09/01 10:47:30;;;;;;;16.05;4.90;;;29.80;52.10;;;;;;5072916;28;20053;-69
2023/09/01 10:50:02;;;;;;;5.75;4.22;;;30.00;53.30;;;;;;5072910;28;20067;-69
2023/09/01 10:52:31;;;;;;;4.13;3.47;;;30.00;53.80;;;;;;5071478;28;20484;-68
2023/09/01 10:55:00;;;;;;;4.30;3.38;;;30.00;53.00;;;;;;5072548;28;20138;-68
2023/09/01 10:57:46;;;;;;;6.78;3.38;;;30.10;52.30;;;;;;5072672;28;20037;-68
2023/09/01 11:00:32;;;;;;;5.45;4.15;;;30.00;52.50;;;;;;5072525;28;20032;-68
2023/09/01 11:03:28;;;;;;;6.05;3.90;;;30.10;52.60;;;;;;5072544;28;20459;-68
2023/09/01 11:05:58;;;;;;;903.53;609.47;;;30.00;52.10;;;;;;5070516;28;20061;-68
2023/09/01 11:08:25;;;;;;;23.02;16.02;;;30.10;51.40;;;;;;5072814;28;20029;-68
2023/09/01 11:10:55;;;;;;;15.48;10.18;;;30.10;50.30;;;;;;5071157;28;20052;-68
2023/09/01 11:13:22;;;;;;;10.98;7.68;;;30.20;50.50;;;;;;5072648;28;20458;-69
2023/09/01 11:15:50;;;;;;;14.00;9.38;;;30.30;49.90;;;;;;5072628;28;20071;-68
2023/09/01 11:18:21;;;;;;;17.05;9.23;;;30.30;49.40;;;;;;5071153;28;20392;-69
2023/09/01 11:20:49;;;;;;;12.13;7.18;;;30.20;48.60;;;;;;5072421;28;20044;-68
2023/09/01 11:23:20;;;;;;;5.18;4.07;;;30.10;49.70;;;;;;5072128;28;20048;-68
2023/09/01 11:25:48;;;;;;;9.45;6.55;;;30.10;49.40;;;;;;5072117;28;20159;-68
2023/09/01 11:28:14;;;;;;;5.78;4.50;;;30.20;49.60;;;;;;5072005;28;20027;-69
2023/09/01 11:30:57;;;;;;;13.02;7.25;;;30.00;49.80;;;;;;5072189;28;20077;-68
2023/09/01 11:33:25;;;;;;;10.35;6.10;;;30.10;50.00;;;;;;5072222;28;20083;-68
2023/09/01 11:36:03;;;;;;;8.45;5.15;;;30.10;50.20;;;;;;5071923;28;20037;-68
2023/09/01 11:38:29;;;;;;;7.30;4.65;;;30.10;50.20;;;;;;5071921;28;20127;-68
2023/09/01 11:40:56;;;;;;;5.97;4.20;;;30.00;50.20;;;;;;5071903;28;20174;-69
2023/09/01 11:43:23;;;;;;;9.38;6.95;;;29.80;49.70;;;;;;5071723;28;20045;-68
2023/09/01 11:45:49;;;;;;;6.20;4.88;;;29.90;49.80;;;;;;5063814;28;20033;-69
2023/09/01 11:48:25;;;;;;;8.65;6.35;;;29.80;49.80;;;;;;5051699;28;20508;-68
2023/09/01 11:50:55;;;;;;;10.27;5.28;;;29.80;49.90;;;;;;5051171;28;20040;-69
2023/09/01 11:53:25;;;;;;;9.52;5.70;;;29.90;49.80;;;;;;5051918;28;20064;-68
2023/09/01 11:55:51;;;;;;;9.43;4.70;;;29.80;49.80;;;;;;5051481;28;20033;-68
2023/09/01 11:58:17;;;;;;;7.90;4.75;;;29.80;49.70;;;;;;5052109;28;20037;-68
2023/09/01 12:00:44;;;;;;;7.90;5.28;;;29.80;49.70;;;;;;5051612;28;20025;-68
2023/09/01 12:03:11;;;;;;;8.68;6.05;;;29.80;49.80;;;;;;5051670;28;20112;-68
2023/09/01 12:05:39;;;;;;;5.45;4.35;;;29.80;49.80;;;;;;5051560;28;20095;-68
2023/09/01 12:08:07;;;;;;;8.18;5.13;;;29.90;49.80;;;;;;5051619;28;20508;-68
2023/09/01 12:10:34;;;;;;;8.60;5.20;;;29.80;49.80;;;;;;5050813;28;20385;-68
2023/09/01 12:13:11;;;;;;;7.68;5.20;;;29.80;49.80;;;;;;5051495;28;20049;-68
2023/09/01 12:15:59;;;;;;;7.88;5.13;;;29.90;49.90;;;;;;5051371;28;20535;-68
2023/09/01 12:18:33;;;;;;;4.28;3.88;;;29.80;49.90;;;;;;5051625;28;20106;-68
2023/09/01 12:21:00;;;;;;;7.20;4.88;;;29.80;49.90;;;;;;5049690;28;20077;-69
2023/09/01 12:23:34;;;;;;;8.27;4.88;;;30.00;50.50;;;;;;5051321;28;20575;-69
2023/09/01 12:26:01;;;;;;;5.18;4.13;;;30.00;50.60;;;;;;5051228;28;20040;-69
2023/09/01 12:28:29;;;;;;;5.38;3.20;;;29.90;49.90;;;;;;5051368;28;20047;-68
2023/09/01 12:30:56;;;;;;;7.95;4.60;;;29.90;49.30;;;;;;5051104;28;20041;-68
2023/09/01 12:33:22;;;;;;;7.40;5.57;;;29.90;49.90;;;;;;5032181;28;20555;-68
2023/09/01 12:35:50;;;;;;;6.70;4.45;;;29.80;50.20;;;;;;5051220;28;20025;-68
2023/09/01 12:38:16;;;;;;;8.15;4.78;;;29.80;50.30;;;;;;5051210;28;20102;-69
2023/09/01 12:40:42;;;;;;;8.35;5.38;;;29.70;50.70;;;;;;5050822;28;20045;-68
2023/09/01 12:43:09;;;;;;;3.53;3.10;;;29.70;50.80;;;;;;5051006;28;20049;-69
2023/09/01 12:45:35;;;;;;;8.65;5.30;;;29.60;50.80;;;;;;5057089;28;20037;-68
2023/09/01 12:48:01;;;;;;;5.85;4.10;;;29.60;50.90;;;;;;5067571;28;20045;-69
2023/09/01 12:50:31;;;;;;;7.00;4.25;;;29.60;51.10;;;;;;5069836;28;20067;-68
2023/09/01 12:52:58;;;;;;;9.00;4.57;;;29.50;51.10;;;;;;5053120;28;20131;-69